sensor_id;sensor_type;location;lat;lon;timestamp;P1;durP1;ratioP1;P2;durP2;ratioP2
1446;SDS011;717;51.522;7.266;2023-04-15T00:01:30;7.47;;;6.03;;
1446;SDS011;717;51.522;7.266;2023-04-15T00:04:01;7.30;;;5.70;;
1446;SDS011;717;51.522;7.266;2023-04-15T00:06:29;8.63;;;6.22;;
1446;SDS011;717;51.522;7.266;2023-04-15T00:08:58;8.88;;;5.88;;
1446;SDS011;717;51.522;7.266;2023-04-15T00:11:27;8.52;;;6.15;;
1446;SDS011;717;51.522;7.266;2023-04-15T00:13:56;7.30;;;5.95;;
1446;SDS011;717;51.522;7.266;2023-04-15T00:16:25;7.57;;;5.75;;
1446;SDS011;717;51.522;7.266;2023-04-15T00:18:56;9.13;;;6.55;;
1446;SDS011;717;51.522;7.266;2023-04-15T00:21:24;10.15;;;6.35;;
1446;SDS011;717;51.522;7.266;2023-04-15T00:23:53;6.40;;;5.80;;
1446;SDS011;717;51.522;7.266;2023-04-15T00:26:22;7.63;;;5.47;;
1446;SDS011;717;51.522;7.266;2023-04-15T00:28:51;6.63;;;5.90;;
1446;SDS011;717;51.522;7.266;2023-04-15T00:31:19;9.65;;;6.05;;
1446;SDS011;717;51.522;7.266;2023-04-15T00:33:48;7.25;;;6.05;;
1446;SDS011;717;51.522;7.266;2023-04-15T00:36:19;8.43;;;5.60;;
1446;SDS011;717;51.522;7.266;2023-04-15T00:38:48;8.93;;;6.22;;
1446;SDS011;717;51.522;7.266;2023-04-15T00:41:17;7.80;;;5.70;;
1446;SDS011;717;51.522;7.266;2023-04-15T00:43:47;6.20;;;5.60;;
1446;SDS011;717;51.522;7.266;2023-04-15T00:46:15;8.68;;;6.75;;
1446;SDS011;717;51.522;7.266;2023-04-15T00:48:46;7.78;;;6.50;;
1446;SDS011;717;51.522;7.266;2023-04-15T00:51:14;7.38;;;6.18;;
1446;SDS011;717;51.522;7.266;2023-04-15T00:53:46;7.03;;;6.25;;
1446;SDS011;717;51.522;7.266;2023-04-15T00:56:15;8.10;;;6.30;;
1446;SDS011;717;51.522;7.266;2023-04-15T00:58:45;7.78;;;5.95;;
1446;SDS011;717;51.522;7.266;2023-04-15T01:01:15;6.43;;;5.60;;
1446;SDS011;717;51.522;7.266;2023-04-15T01:03:45;7.43;;;6.22;;
1446;SDS011;717;51.522;7.266;2023-04-15T01:06:14;6.93;;;5.90;;
1446;SDS011;717;51.522;7.266;2023-04-15T01:08:46;7.00;;;5.95;;
1446;SDS011;717;51.522;7.266;2023-04-15T01:11:14;6.65;;;6.00;;
1446;SDS011;717;51.522;7.266;2023-04-15T01:13:45;7.03;;;5.75;;
1446;SDS011;717;51.522;7.266;2023-04-15T01:16:14;6.65;;;5.95;;
1446;SDS011;717;51.522;7.266;2023-04-15T01:18:43;6.78;;;5.50;;
1446;SDS011;717;51.522;7.266;2023-04-15T01:21:12;8.57;;;5.55;;
1446;SDS011;717;51.522;7.266;2023-04-15T01:23:40;6.75;;;6.00;;
1446;SDS011;717;51.522;7.266;2023-04-15T01:26:13;8.93;;;6.43;;
1446;SDS011;717;51.522;7.266;2023-04-15T01:28:43;7.50;;;5.40;;
1446;SDS011;717;51.522;7.266;2023-04-15T01:31:12;6.10;;;5.45;;
1446;SDS011;717;51.522;7.266;2023-04-15T01:33:42;6.25;;;5.68;;
1446;SDS011;717;51.522;7.266;2023-04-15T01:36:11;7.30;;;5.40;;
1446;SDS011;717;51.522;7.266;2023-04-15T01:38:39;6.95;;;4.95;;
1446;SDS011;717;51.522;7.266;2023-04-15T01:41:08;8.13;;;5.90;;
1446;SDS011;717;51.522;7.266;2023-04-15T01:43:39;7.03;;;5.85;;
1446;SDS011;717;51.522;7.266;2023-04-15T01:46:08;8.82;;;5.97;;
1446;SDS011;717;51.522;7.266;2023-04-15T01:48:36;6.80;;;5.88;;
1446;SDS011;717;51.522;7.266;2023-04-15T01:51:05;6.75;;;6.10;;
1446;SDS011;717;51.522;7.266;2023-04-15T01:53:33;7.78;;;5.80;;
1446;SDS011;717;51.522;7.266;2023-04-15T01:56:02;6.13;;;5.50;;
1446;SDS011;717;51.522;7.266;2023-04-15T01:58:31;7.13;;;5.82;;
1446;SDS011;717;51.522;7.266;2023-04-15T02:01:02;7.03;;;5.75;;
1446;SDS011;717;51.522;7.266;2023-04-15T02:03:31;7.20;;;5.95;;
1446;SDS011;717;51.522;7.266;2023-04-15T02:05:59;9.13;;;5.88;;
1446;SDS011;717;51.522;7.266;2023-04-15T02:08:28;6.80;;;5.63;;
1446;SDS011;717;51.522;7.266;2023-04-15T02:10:57;7.63;;;6.00;;
1446;SDS011;717;51.522;7.266;2023-04-15T02:13:26;7.32;;;5.85;;
1446;SDS011;717;51.522;7.266;2023-04-15T02:15:55;7.07;;;5.90;;
1446;SDS011;717;51.522;7.266;2023-04-15T02:18:27;7.38;;;5.60;;
1446;SDS011;717;51.522;7.266;2023-04-15T02:20:55;7.85;;;6.00;;
1446;SDS011;717;51.522;7.266;2023-04-15T02:23:24;6.85;;;5.90;;
1446;SDS011;717;51.522;7.266;2023-04-15T02:25:52;6.72;;;5.65;;
1446;SDS011;717;51.522;7.266;2023-04-15T02:28:20;7.38;;;5.22;;
1446;SDS011;717;51.522;7.266;2023-04-15T02:30:49;6.35;;;5.38;;
1446;SDS011;717;51.522;7.266;2023-04-15T02:33:20;6.38;;;5.43;;
1446;SDS011;717;51.522;7.266;2023-04-15T02:35:51;6.45;;;5.35;;
1446;SDS011;717;51.522;7.266;2023-04-15T02:38:20;6.57;;;5.97;;
1446;SDS011;717;51.522;7.266;2023-04-15T02:40:48;7.28;;;6.00;;
1446;SDS011;717;51.522;7.266;2023-04-15T02:43:17;7.38;;;5.93;;
1446;SDS011;717;51.522;7.266;2023-04-15T02:45:45;7.57;;;5.75;;
1446;SDS011;717;51.522;7.266;2023-04-15T02:48:15;6.53;;;5.93;;
1446;SDS011;717;51.522;7.266;2023-04-15T02:50:44;6.95;;;5.50;;
1446;SDS011;717;51.522;7.266;2023-04-15T02:53:15;6.68;;;5.35;;
1446;SDS011;717;51.522;7.266;2023-04-15T02:55:44;7.80;;;5.35;;
1446;SDS011;717;51.522;7.266;2023-04-15T02:58:13;6.93;;;5.30;;
1446;SDS011;717;51.522;7.266;2023-04-15T03:00:41;5.95;;;5.35;;
1446;SDS011;717;51.522;7.266;2023-04-15T03:03:10;6.03;;;5.43;;
1446;SDS011;717;51.522;7.266;2023-04-15T03:05:39;5.40;;;4.55;;
1446;SDS011;717;51.522;7.266;2023-04-15T03:08:07;7.47;;;5.43;;
1446;SDS011;717;51.522;7.266;2023-04-15T03:10:38;7.13;;;5.28;;
1446;SDS011;717;51.522;7.266;2023-04-15T03:13:07;6.78;;;5.25;;
1446;SDS011;717;51.522;7.266;2023-04-15T03:15:35;8.27;;;6.15;;
1446;SDS011;717;51.522;7.266;2023-04-15T03:18:04;7.90;;;5.65;;
1446;SDS011;717;51.522;7.266;2023-04-15T03:20:32;6.25;;;4.90;;
1446;SDS011;717;51.522;7.266;2023-04-15T03:23:01;6.47;;;5.38;;
1446;SDS011;717;51.522;7.266;2023-04-15T03:25:29;6.82;;;5.82;;
1446;SDS011;717;51.522;7.266;2023-04-15T03:28:01;6.88;;;5.22;;
1446;SDS011;717;51.522;7.266;2023-04-15T03:30:30;6.97;;;5.60;;
1446;SDS011;717;51.522;7.266;2023-04-15T03:32:58;6.35;;;5.30;;
1446;SDS011;717;51.522;7.266;2023-04-15T03:35:27;6.15;;;5.47;;
1446;SDS011;717;51.522;7.266;2023-04-15T03:37:56;6.28;;;5.68;;
1446;SDS011;717;51.522;7.266;2023-04-15T03:40:24;7.60;;;5.30;;
1446;SDS011;717;51.522;7.266;2023-04-15T03:42:53;6.45;;;5.65;;
1446;SDS011;717;51.522;7.266;2023-04-15T03:45:24;6.28;;;5.57;;
1446;SDS011;717;51.522;7.266;2023-04-15T03:47:52;6.43;;;5.13;;
1446;SDS011;717;51.522;7.266;2023-04-15T03:50:21;6.78;;;5.80;;
1446;SDS011;717;51.522;7.266;2023-04-15T03:52:49;5.78;;;5.18;;
1446;SDS011;717;51.522;7.266;2023-04-15T03:55:18;7.18;;;5.65;;
1446;SDS011;717;51.522;7.266;2023-04-15T03:57:47;7.15;;;5.80;;
1446;SDS011;717;51.522;7.266;2023-04-15T04:00:15;7.15;;;5.60;;
1446;SDS011;717;51.522;7.266;2023-04-15T04:02:47;6.68;;;5.85;;
1446;SDS011;717;51.522;7.266;2023-04-15T04:05:15;7.75;;;5.97;;
1446;SDS011;717;51.522;7.266;2023-04-15T04:07:44;7.20;;;5.82;;
1446;SDS011;717;51.522;7.266;2023-04-15T04:10:12;8.13;;;5.70;;
1446;SDS011;717;51.522;7.266;2023-04-15T04:12:41;7.88;;;6.00;;
1446;SDS011;717;51.522;7.266;2023-04-15T04:15:10;7.43;;;6.65;;
1446;SDS011;717;51.522;7.266;2023-04-15T04:17:38;6.72;;;6.00;;
1446;SDS011;717;51.522;7.266;2023-04-15T04:20:10;8.38;;;5.95;;
1446;SDS011;717;51.522;7.266;2023-04-15T04:22:39;8.50;;;6.05;;
1446;SDS011;717;51.522;7.266;2023-04-15T04:25:08;9.13;;;6.15;;
1446;SDS011;717;51.522;7.266;2023-04-15T04:27:37;7.97;;;6.28;;
1446;SDS011;717;51.522;7.266;2023-04-15T04:30:06;8.35;;;6.32;;
1446;SDS011;717;51.522;7.266;2023-04-15T04:32:35;7.05;;;5.90;;
1446;SDS011;717;51.522;7.266;2023-04-15T04:35:04;7.90;;;6.63;;
1446;SDS011;717;51.522;7.266;2023-04-15T04:37:35;8.68;;;6.07;;
1446;SDS011;717;51.522;7.266;2023-04-15T04:40:05;8.65;;;6.47;;
1446;SDS011;717;51.522;7.266;2023-04-15T04:42:34;7.43;;;6.27;;
1446;SDS011;717;51.522;7.266;2023-04-15T04:45:03;7.35;;;6.13;;
1446;SDS011;717;51.522;7.266;2023-04-15T04:47:32;8.02;;;6.57;;
1446;SDS011;717;51.522;7.266;2023-04-15T04:50:01;7.07;;;6.15;;
1446;SDS011;717;51.522;7.266;2023-04-15T04:52:30;8.80;;;6.70;;
1446;SDS011;717;51.522;7.266;2023-04-15T04:55:01;7.50;;;6.50;;
1446;SDS011;717;51.522;7.266;2023-04-15T04:57:30;9.33;;;7.20;;
1446;SDS011;717;51.522;7.266;2023-04-15T04:59:59;10.60;;;6.80;;
1446;SDS011;717;51.522;7.266;2023-04-15T05:02:29;8.07;;;6.00;;
1446;SDS011;717;51.522;7.266;2023-04-15T05:04:57;7.77;;;6.47;;
1446;SDS011;717;51.522;7.266;2023-04-15T05:07:26;10.70;;;7.40;;
1446;SDS011;717;51.522;7.266;2023-04-15T05:09:54;8.30;;;6.83;;
1446;SDS011;717;51.522;7.266;2023-04-15T05:12:25;8.17;;;7.00;;
1446;SDS011;717;51.522;7.266;2023-04-15T05:14:54;10.50;;;7.20;;
1446;SDS011;717;51.522;7.266;2023-04-15T05:17:22;8.23;;;6.47;;
1446;SDS011;717;51.522;7.266;2023-04-15T05:19:51;8.63;;;6.72;;
1446;SDS011;717;51.522;7.266;2023-04-15T05:22:20;7.97;;;6.90;;
1446;SDS011;717;51.522;7.266;2023-04-15T05:24:48;10.90;;;6.90;;
1446;SDS011;717;51.522;7.266;2023-04-15T05:27:17;11.40;;;7.47;;
1446;SDS011;717;51.522;7.266;2023-04-15T05:29:49;9.40;;;7.30;;
1446;SDS011;717;51.522;7.266;2023-04-15T05:32:17;9.55;;;7.90;;
1446;SDS011;717;51.522;7.266;2023-04-15T05:34:46;8.50;;;6.72;;
1446;SDS011;717;51.522;7.266;2023-04-15T05:37:14;9.68;;;7.22;;
1446;SDS011;717;51.522;7.266;2023-04-15T05:39:44;9.55;;;7.75;;
1446;SDS011;717;51.522;7.266;2023-04-15T05:42:13;9.25;;;7.38;;
1446;SDS011;717;51.522;7.266;2023-04-15T05:44:42;8.82;;;7.80;;
1446;SDS011;717;51.522;7.266;2023-04-15T05:47:13;9.43;;;8.00;;
1446;SDS011;717;51.522;7.266;2023-04-15T05:49:41;9.98;;;7.57;;
1446;SDS011;717;51.522;7.266;2023-04-15T05:52:10;10.32;;;7.75;;
1446;SDS011;717;51.522;7.266;2023-04-15T05:54:38;9.43;;;7.57;;
1446;SDS011;717;51.522;7.266;2023-04-15T05:57:07;13.15;;;8.57;;
1446;SDS011;717;51.522;7.266;2023-04-15T05:59:35;8.13;;;7.32;;
1446;SDS011;717;51.522;7.266;2023-04-15T06:02:06;8.90;;;7.85;;
1446;SDS011;717;51.522;7.266;2023-04-15T06:04:37;10.30;;;8.23;;
1446;SDS011;717;51.522;7.266;2023-04-15T06:07:06;10.45;;;8.43;;
1446;SDS011;717;51.522;7.266;2023-04-15T06:09:34;8.97;;;8.00;;
1446;SDS011;717;51.522;7.266;2023-04-15T06:12:03;9.25;;;7.85;;
1446;SDS011;717;51.522;7.266;2023-04-15T06:14:36;11.50;;;8.33;;
1446;SDS011;717;51.522;7.266;2023-04-15T06:17:04;9.97;;;8.43;;
1446;SDS011;717;51.522;7.266;2023-04-15T06:19:33;12.00;;;8.57;;
1446;SDS011;717;51.522;7.266;2023-04-15T06:22:04;11.00;;;8.77;;
1446;SDS011;717;51.522;7.266;2023-04-15T06:24:33;10.43;;;9.00;;
1446;SDS011;717;51.522;7.266;2023-04-15T06:27:02;10.88;;;9.70;;
1446;SDS011;717;51.522;7.266;2023-04-15T06:29:30;11.30;;;9.63;;
1446;SDS011;717;51.522;7.266;2023-04-15T06:31:59;11.67;;;9.47;;
1446;SDS011;717;51.522;7.266;2023-04-15T06:34:27;12.77;;;10.07;;
1446;SDS011;717;51.522;7.266;2023-04-15T06:36:55;11.55;;;9.30;;
1446;SDS011;717;51.522;7.266;2023-04-15T06:39:27;11.07;;;9.57;;
1446;SDS011;717;51.522;7.266;2023-04-15T06:41:56;9.98;;;8.90;;
1446;SDS011;717;51.522;7.266;2023-04-15T06:44:25;11.82;;;9.48;;
1446;SDS011;717;51.522;7.266;2023-04-15T06:46:53;10.63;;;9.30;;
1446;SDS011;717;51.522;7.266;2023-04-15T06:49:22;12.32;;;9.00;;
1446;SDS011;717;51.522;7.266;2023-04-15T06:51:50;10.25;;;8.85;;
1446;SDS011;717;51.522;7.266;2023-04-15T06:54:19;12.55;;;9.10;;
1446;SDS011;717;51.522;7.266;2023-04-15T06:56:50;11.45;;;8.45;;
1446;SDS011;717;51.522;7.266;2023-04-15T06:59:19;10.70;;;8.32;;
1446;SDS011;717;51.522;7.266;2023-04-15T07:01:48;10.93;;;8.73;;
1446;SDS011;717;51.522;7.266;2023-04-15T07:04:16;11.43;;;8.55;;
1446;SDS011;717;51.522;7.266;2023-04-15T07:06:45;11.13;;;8.65;;
1446;SDS011;717;51.522;7.266;2023-04-15T07:09:14;11.65;;;8.57;;
1446;SDS011;717;51.522;7.266;2023-04-15T07:11:42;9.50;;;8.35;;
1446;SDS011;717;51.522;7.266;2023-04-15T07:14:13;9.15;;;8.23;;
1446;SDS011;717;51.522;7.266;2023-04-15T07:16:42;11.55;;;8.52;;
1446;SDS011;717;51.522;7.266;2023-04-15T07:19:10;10.65;;;8.68;;
1446;SDS011;717;51.522;7.266;2023-04-15T07:21:38;10.85;;;8.32;;
1446;SDS011;717;51.522;7.266;2023-04-15T07:24:08;10.43;;;9.02;;
1446;SDS011;717;51.522;7.266;2023-04-15T07:26:40;10.35;;;8.55;;
1446;SDS011;717;51.522;7.266;2023-04-15T07:29:09;12.63;;;8.85;;
1446;SDS011;717;51.522;7.266;2023-04-15T07:31:40;11.45;;;8.80;;
1446;SDS011;717;51.522;7.266;2023-04-15T07:34:09;11.52;;;8.88;;
1446;SDS011;717;51.522;7.266;2023-04-15T07:36:37;11.20;;;8.50;;
1446;SDS011;717;51.522;7.266;2023-04-15T07:39:06;9.93;;;8.40;;
1446;SDS011;717;51.522;7.266;2023-04-15T07:41:34;11.52;;;8.65;;
1446;SDS011;717;51.522;7.266;2023-04-15T07:44:03;12.30;;;8.93;;
1446;SDS011;717;51.522;7.266;2023-04-15T07:46:31;10.63;;;8.63;;
1446;SDS011;717;51.522;7.266;2023-04-15T07:49:03;9.82;;;8.73;;
1446;SDS011;717;51.522;7.266;2023-04-15T07:51:32;9.90;;;8.85;;
1446;SDS011;717;51.522;7.266;2023-04-15T07:54:01;10.05;;;8.35;;
1446;SDS011;717;51.522;7.266;2023-04-15T07:56:29;12.57;;;8.93;;
1446;SDS011;717;51.522;7.266;2023-04-15T07:58:58;9.63;;;7.65;;
1446;SDS011;717;51.522;7.266;2023-04-15T08:01:28;11.25;;;8.13;;
1446;SDS011;717;51.522;7.266;2023-04-15T08:03:57;9.00;;;7.13;;
1446;SDS011;717;51.522;7.266;2023-04-15T08:06:29;8.52;;;7.35;;
1446;SDS011;717;51.522;7.266;2023-04-15T08:08:57;8.27;;;7.43;;
1446;SDS011;717;51.522;7.266;2023-04-15T08:11:25;8.32;;;7.32;;
1446;SDS011;717;51.522;7.266;2023-04-15T08:13:55;9.77;;;7.32;;
1446;SDS011;717;51.522;7.266;2023-04-15T08:16:24;8.50;;;6.88;;
1446;SDS011;717;51.522;7.266;2023-04-15T08:18:54;7.85;;;6.93;;
1446;SDS011;717;51.522;7.266;2023-04-15T08:21:23;7.95;;;7.15;;
1446;SDS011;717;51.522;7.266;2023-04-15T08:23:55;9.15;;;6.80;;
1446;SDS011;717;51.522;7.266;2023-04-15T08:26:24;7.90;;;6.07;;
1446;SDS011;717;51.522;7.266;2023-04-15T08:28:52;7.53;;;6.25;;
1446;SDS011;717;51.522;7.266;2023-04-15T08:31:21;7.03;;;6.25;;
1446;SDS011;717;51.522;7.266;2023-04-15T08:33:49;6.85;;;6.10;;
1446;SDS011;717;51.522;7.266;2023-04-15T08:36:20;7.40;;;6.53;;
1446;SDS011;717;51.522;7.266;2023-04-15T08:38:49;7.63;;;6.35;;
1446;SDS011;717;51.522;7.266;2023-04-15T08:41:23;8.23;;;6.10;;
1446;SDS011;717;51.522;7.266;2023-04-15T08:43:53;8.38;;;6.97;;
1446;SDS011;717;51.522;7.266;2023-04-15T08:46:24;7.75;;;6.60;;
1446;SDS011;717;51.522;7.266;2023-04-15T08:48:53;7.10;;;6.40;;
1446;SDS011;717;51.522;7.266;2023-04-15T08:51:25;8.07;;;6.75;;
1446;SDS011;717;51.522;7.266;2023-04-15T08:53:54;7.75;;;6.72;;
1446;SDS011;717;51.522;7.266;2023-04-15T08:56:25;8.20;;;6.45;;
1446;SDS011;717;51.522;7.266;2023-04-15T08:58:57;6.30;;;5.60;;
1446;SDS011;717;51.522;7.266;2023-04-15T09:01:26;5.88;;;4.68;;
1446;SDS011;717;51.522;7.266;2023-04-15T09:03:55;5.00;;;4.38;;
1446;SDS011;717;51.522;7.266;2023-04-15T09:06:24;5.53;;;4.88;;
1446;SDS011;717;51.522;7.266;2023-04-15T09:08:53;4.80;;;4.32;;
1446;SDS011;717;51.522;7.266;2023-04-15T09:11:22;4.80;;;4.40;;
1446;SDS011;717;51.522;7.266;2023-04-15T09:13:53;6.25;;;4.05;;
1446;SDS011;717;51.522;7.266;2023-04-15T09:16:23;4.95;;;4.53;;
1446;SDS011;717;51.522;7.266;2023-04-15T09:18:52;4.72;;;4.32;;
1446;SDS011;717;51.522;7.266;2023-04-15T09:21:21;6.60;;;4.90;;
1446;SDS011;717;51.522;7.266;2023-04-15T09:23:53;6.03;;;4.40;;
1446;SDS011;717;51.522;7.266;2023-04-15T09:26:29;5.80;;;5.30;;
1446;SDS011;717;51.522;7.266;2023-04-15T09:29:09;5.40;;;4.95;;
1446;SDS011;717;51.522;7.266;2023-04-15T09:31:38;5.72;;;5.22;;
1446;SDS011;717;51.522;7.266;2023-04-15T09:34:07;5.15;;;4.65;;
1446;SDS011;717;51.522;7.266;2023-04-15T09:36:37;6.95;;;5.80;;
1446;SDS011;717;51.522;7.266;2023-04-15T09:39:18;5.70;;;5.20;;
1446;SDS011;717;51.522;7.266;2023-04-15T09:41:53;5.70;;;5.20;;
1446;SDS011;717;51.522;7.266;2023-04-15T09:44:35;6.30;;;5.68;;
1446;SDS011;717;51.522;7.266;2023-04-15T09:47:04;6.03;;;5.45;;
1446;SDS011;717;51.522;7.266;2023-04-15T09:49:33;5.93;;;5.43;;
1446;SDS011;717;51.522;7.266;2023-04-15T09:52:01;6.20;;;5.60;;
1446;SDS011;717;51.522;7.266;2023-04-15T09:54:33;6.10;;;5.30;;
1446;SDS011;717;51.522;7.266;2023-04-15T09:57:06;6.40;;;5.80;;
1446;SDS011;717;51.522;7.266;2023-04-15T09:59:38;6.50;;;5.90;;
1446;SDS011;717;51.522;7.266;2023-04-15T10:02:07;5.85;;;5.25;;
1446;SDS011;717;51.522;7.266;2023-04-15T10:04:40;5.93;;;5.35;;
1446;SDS011;717;51.522;7.266;2023-04-15T10:07:09;5.70;;;5.20;;
1446;SDS011;717;51.522;7.266;2023-04-15T10:09:38;6.50;;;5.50;;
1446;SDS011;717;51.522;7.266;2023-04-15T10:12:07;5.65;;;5.10;;
1446;SDS011;717;51.522;7.266;2023-04-15T10:14:38;6.00;;;5.50;;
1446;SDS011;717;51.522;7.266;2023-04-15T10:17:10;6.70;;;6.00;;
1446;SDS011;717;51.522;7.266;2023-04-15T10:19:39;7.45;;;6.72;;
1446;SDS011;717;51.522;7.266;2023-04-15T10:22:08;6.20;;;5.65;;
1446;SDS011;717;51.522;7.266;2023-04-15T10:24:37;6.18;;;5.28;;
1446;SDS011;717;51.522;7.266;2023-04-15T10:27:07;4.95;;;4.55;;
1446;SDS011;717;51.522;7.266;2023-04-15T10:29:39;5.43;;;4.43;;
1446;SDS011;717;51.522;7.266;2023-04-15T10:32:07;5.07;;;4.57;;
1446;SDS011;717;51.522;7.266;2023-04-15T10:34:37;4.72;;;4.32;;
1446;SDS011;717;51.522;7.266;2023-04-15T10:37:08;4.88;;;4.38;;
1446;SDS011;717;51.522;7.266;2023-04-15T10:39:38;5.25;;;4.70;;
1446;SDS011;717;51.522;7.266;2023-04-15T10:42:08;5.22;;;4.22;;
1446;SDS011;717;51.522;7.266;2023-04-15T10:44:43;7.15;;;4.53;;
1446;SDS011;717;51.522;7.266;2023-04-15T10:47:16;4.63;;;4.22;;
1446;SDS011;717;51.522;7.266;2023-04-15T10:49:46;4.93;;;4.53;;
1446;SDS011;717;51.522;7.266;2023-04-15T10:52:17;4.53;;;4.13;;
1446;SDS011;717;51.522;7.266;2023-04-15T10:54:53;5.68;;;4.72;;
1446;SDS011;717;51.522;7.266;2023-04-15T10:57:33;6.25;;;4.45;;
1446;SDS011;717;51.522;7.266;2023-04-15T11:00:11;5.13;;;4.30;;
1446;SDS011;717;51.522;7.266;2023-04-15T11:02:41;4.80;;;4.40;;
1446;SDS011;717;51.522;7.266;2023-04-15T11:05:12;4.85;;;4.35;;
1446;SDS011;717;51.522;7.266;2023-04-15T11:07:48;5.22;;;4.70;;
1446;SDS011;717;51.522;7.266;2023-04-15T11:13:22;4.93;;;4.50;;
1446;SDS011;717;51.522;7.266;2023-04-15T11:15:59;6.60;;;5.00;;
1446;SDS011;717;51.522;7.266;2023-04-15T11:18:32;5.30;;;4.78;;
1446;SDS011;717;51.522;7.266;2023-04-15T11:21:03;5.32;;;4.82;;
1446;SDS011;717;51.522;7.266;2023-04-15T11:23:34;5.68;;;5.15;;
1446;SDS011;717;51.522;7.266;2023-04-15T11:26:05;5.68;;;5.05;;
1446;SDS011;717;51.522;7.266;2023-04-15T11:28:36;5.30;;;4.80;;
1446;SDS011;717;51.522;7.266;2023-04-15T11:31:09;5.05;;;4.55;;
1446;SDS011;717;51.522;7.266;2023-04-15T11:33:45;4.95;;;4.43;;
1446;SDS011;717;51.522;7.266;2023-04-15T11:36:14;4.85;;;4.38;;
1446;SDS011;717;51.522;7.266;2023-04-15T11:38:43;5.78;;;4.93;;
1446;SDS011;717;51.522;7.266;2023-04-15T11:41:13;5.82;;;4.30;;
1446;SDS011;717;51.522;7.266;2023-04-15T11:43:42;4.90;;;4.40;;
1446;SDS011;717;51.522;7.266;2023-04-15T11:46:13;5.15;;;4.65;;
1446;SDS011;717;51.522;7.266;2023-04-15T11:48:42;5.30;;;4.55;;
1446;SDS011;717;51.522;7.266;2023-04-15T11:51:12;5.15;;;4.20;;
1446;SDS011;717;51.522;7.266;2023-04-15T11:53:42;5.18;;;4.75;;
1446;SDS011;717;51.522;7.266;2023-04-15T11:56:15;6.43;;;4.65;;
1446;SDS011;717;51.522;7.266;2023-04-15T11:58:45;4.88;;;4.38;;
1446;SDS011;717;51.522;7.266;2023-04-15T12:01:17;4.60;;;4.20;;
1446;SDS011;717;51.522;7.266;2023-04-15T12:03:46;5.03;;;4.55;;
1446;SDS011;717;51.522;7.266;2023-04-15T12:06:16;4.78;;;4.13;;
1446;SDS011;717;51.522;7.266;2023-04-15T12:08:49;5.20;;;4.70;;
1446;SDS011;717;51.522;7.266;2023-04-15T12:11:19;4.82;;;4.35;;
1446;SDS011;717;51.522;7.266;2023-04-15T12:13:55;4.50;;;4.10;;
1446;SDS011;717;51.522;7.266;2023-04-15T12:16:27;5.15;;;4.65;;
1446;SDS011;717;51.522;7.266;2023-04-15T12:18:58;4.78;;;4.38;;
1446;SDS011;717;51.522;7.266;2023-04-15T12:21:32;4.55;;;4.15;;
1446;SDS011;717;51.522;7.266;2023-04-15T12:24:03;6.15;;;4.50;;
1446;SDS011;717;51.522;7.266;2023-04-15T12:26:33;6.70;;;4.90;;
1446;SDS011;717;51.522;7.266;2023-04-15T12:29:04;5.47;;;4.63;;
1446;SDS011;717;51.522;7.266;2023-04-15T12:31:36;4.57;;;4.05;;
1446;SDS011;717;51.522;7.266;2023-04-15T12:34:13;4.40;;;4.00;;
1446;SDS011;717;51.522;7.266;2023-04-15T12:36:42;4.45;;;3.95;;
1446;SDS011;717;51.522;7.266;2023-04-15T12:39:11;4.30;;;3.90;;
1446;SDS011;717;51.522;7.266;2023-04-15T12:41:40;3.85;;;3.55;;
1446;SDS011;717;51.522;7.266;2023-04-15T12:44:08;3.88;;;3.42;;
1446;SDS011;717;51.522;7.266;2023-04-15T12:46:40;4.32;;;3.80;;
1446;SDS011;717;51.522;7.266;2023-04-15T12:49:08;4.05;;;3.72;;
1446;SDS011;717;51.522;7.266;2023-04-15T12:51:38;4.40;;;3.50;;
1446;SDS011;717;51.522;7.266;2023-04-15T12:54:07;4.30;;;3.70;;
1446;SDS011;717;51.522;7.266;2023-04-15T12:56:36;4.78;;;3.75;;
1446;SDS011;717;51.522;7.266;2023-04-15T12:59:04;3.88;;;3.50;;
1446;SDS011;717;51.522;7.266;2023-04-15T13:01:34;3.75;;;3.33;;
1446;SDS011;717;51.522;7.266;2023-04-15T13:04:05;4.20;;;3.75;;
1446;SDS011;717;51.522;7.266;2023-04-15T13:06:34;3.65;;;2.80;;
1446;SDS011;717;51.522;7.266;2023-04-15T13:09:02;3.63;;;3.30;;
1446;SDS011;717;51.522;7.266;2023-04-15T13:11:32;3.78;;;3.05;;
1446;SDS011;717;51.522;7.266;2023-04-15T13:14:01;4.35;;;3.17;;
1446;SDS011;717;51.522;7.266;2023-04-15T13:16:31;3.25;;;2.92;;
1446;SDS011;717;51.522;7.266;2023-04-15T13:19:01;4.55;;;3.20;;
1446;SDS011;717;51.522;7.266;2023-04-15T13:21:33;3.30;;;3.00;;
1446;SDS011;717;51.522;7.266;2023-04-15T13:24:01;3.33;;;3.03;;
1446;SDS011;717;51.522;7.266;2023-04-15T13:26:31;3.00;;;2.78;;
1446;SDS011;717;51.522;7.266;2023-04-15T13:29:00;2.95;;;2.67;;
1446;SDS011;717;51.522;7.266;2023-04-15T13:31:28;4.03;;;2.92;;
1446;SDS011;717;51.522;7.266;2023-04-15T13:33:57;4.82;;;3.00;;
1446;SDS011;717;51.522;7.266;2023-04-15T13:36:28;3.05;;;2.75;;
1446;SDS011;717;51.522;7.266;2023-04-15T13:38:56;3.67;;;2.75;;
1446;SDS011;717;51.522;7.266;2023-04-15T13:41:25;3.00;;;2.80;;
1446;SDS011;717;51.522;7.266;2023-04-15T13:43:54;4.07;;;2.67;;
1446;SDS011;717;51.522;7.266;2023-04-15T13:46:22;3.08;;;2.70;;
1446;SDS011;717;51.522;7.266;2023-04-15T13:48:51;2.72;;;2.53;;
1446;SDS011;717;51.522;7.266;2023-04-15T13:51:19;3.45;;;2.60;;
1446;SDS011;717;51.522;7.266;2023-04-15T13:53:51;4.38;;;2.72;;
1446;SDS011;717;51.522;7.266;2023-04-15T13:56:19;4.05;;;2.80;;
1446;SDS011;717;51.522;7.266;2023-04-15T13:58:48;3.08;;;2.60;;
1446;SDS011;717;51.522;7.266;2023-04-15T14:01:16;3.83;;;3.03;;
1446;SDS011;717;51.522;7.266;2023-04-15T14:03:45;3.65;;;3.08;;
1446;SDS011;717;51.522;7.266;2023-04-15T14:06:14;3.90;;;3.00;;
1446;SDS011;717;51.522;7.266;2023-04-15T14:08:42;3.35;;;2.97;;
1446;SDS011;717;51.522;7.266;2023-04-15T14:11:13;3.47;;;2.80;;
1446;SDS011;717;51.522;7.266;2023-04-15T14:13:42;2.95;;;2.60;;
1446;SDS011;717;51.522;7.266;2023-04-15T14:16:11;2.90;;;2.40;;
1446;SDS011;717;51.522;7.266;2023-04-15T14:18:40;3.17;;;2.88;;
1446;SDS011;717;51.522;7.266;2023-04-15T14:21:09;3.28;;;2.75;;
1446;SDS011;717;51.522;7.266;2023-04-15T14:23:38;3.35;;;2.53;;
1446;SDS011;717;51.522;7.266;2023-04-15T14:26:06;2.92;;;2.40;;
1446;SDS011;717;51.522;7.266;2023-04-15T14:28:37;2.78;;;2.58;;
1446;SDS011;717;51.522;7.266;2023-04-15T14:31:08;3.75;;;2.80;;
1446;SDS011;717;51.522;7.266;2023-04-15T14:33:38;2.92;;;2.63;;
1446;SDS011;717;51.522;7.266;2023-04-15T14:36:07;2.95;;;2.45;;
1446;SDS011;717;51.522;7.266;2023-04-15T14:38:36;5.75;;;2.90;;
1446;SDS011;717;51.522;7.266;2023-04-15T14:41:05;3.30;;;3.00;;
1446;SDS011;717;51.522;7.266;2023-04-15T14:43:34;3.28;;;2.97;;
1446;SDS011;717;51.522;7.266;2023-04-15T14:46:05;3.70;;;3.33;;
1446;SDS011;717;51.522;7.266;2023-04-15T14:48:34;4.28;;;3.58;;
1446;SDS011;717;51.522;7.266;2023-04-15T14:51:03;3.95;;;3.30;;
1446;SDS011;717;51.522;7.266;2023-04-15T14:53:32;3.90;;;3.35;;
1446;SDS011;717;51.522;7.266;2023-04-15T14:56:00;3.75;;;3.33;;
1446;SDS011;717;51.522;7.266;2023-04-15T14:58:29;4.13;;;3.72;;
1446;SDS011;717;51.522;7.266;2023-04-15T15:00:57;4.30;;;3.60;;
1446;SDS011;717;51.522;7.266;2023-04-15T15:03:29;4.07;;;3.38;;
1446;SDS011;717;51.522;7.266;2023-04-15T15:05:58;4.22;;;3.25;;
1446;SDS011;717;51.522;7.266;2023-04-15T15:08:26;3.55;;;3.22;;
1446;SDS011;717;51.522;7.266;2023-04-15T15:10:55;4.15;;;3.40;;
1446;SDS011;717;51.522;7.266;2023-04-15T15:13:23;4.30;;;3.90;;
1446;SDS011;717;51.522;7.266;2023-04-15T15:15:52;4.45;;;3.83;;
1446;SDS011;717;51.522;7.266;2023-04-15T15:18:21;4.30;;;3.90;;
1446;SDS011;717;51.522;7.266;2023-04-15T15:20:52;4.13;;;3.30;;
1446;SDS011;717;51.522;7.266;2023-04-15T15:23:20;4.75;;;2.92;;
1446;SDS011;717;51.522;7.266;2023-04-15T15:25:49;3.20;;;2.90;;
1446;SDS011;717;51.522;7.266;2023-04-15T15:28:17;2.80;;;2.60;;
1446;SDS011;717;51.522;7.266;2023-04-15T15:30:46;3.55;;;2.90;;
1446;SDS011;717;51.522;7.266;2023-04-15T15:33:15;3.88;;;3.53;;
1446;SDS011;717;51.522;7.266;2023-04-15T15:35:44;4.18;;;2.88;;
1446;SDS011;717;51.522;7.266;2023-04-15T15:38:16;3.90;;;3.22;;
1446;SDS011;717;51.522;7.266;2023-04-15T15:40:44;4.38;;;3.30;;
1446;SDS011;717;51.522;7.266;2023-04-15T15:43:13;3.95;;;2.85;;
1446;SDS011;717;51.522;7.266;2023-04-15T15:45:42;3.70;;;3.20;;